sensor_id;sensor_type;location;lat;lon;timestamp;P1;durP1;ratioP1;P2;durP2;ratioP2
61958;SDS011;47917;48.784;14.980;2022-07-06T00:01:32;7.72;;;4.93;;
61958;SDS011;47917;48.784;14.980;2022-07-06T00:03:57;7.75;;;5.55;;
61958;SDS011;47917;48.784;14.980;2022-07-06T00:06:23;9.30;;;5.50;;
61958;SDS011;47917;48.784;14.980;2022-07-06T00:08:48;8.10;;;5.97;;
61958;SDS011;47917;48.784;14.980;2022-07-06T00:11:13;5.88;;;5.32;;
61958;SDS011;47917;48.784;14.980;2022-07-06T00:13:39;6.20;;;5.32;;
61958;SDS011;47917;48.784;14.980;2022-07-06T00:16:04;7.35;;;5.20;;
61958;SDS011;47917;48.784;14.980;2022-07-06T00:18:29;6.68;;;5.18;;
61958;SDS011;47917;48.784;14.980;2022-07-06T00:20:55;9.55;;;5.43;;
61958;SDS011;47917;48.784;14.980;2022-07-06T00:23:21;9.23;;;5.13;;
61958;SDS011;47917;48.784;14.980;2022-07-06T00:25:46;5.57;;;4.45;;
61958;SDS011;47917;48.784;14.980;2022-07-06T00:28:13;4.00;;;3.58;;
61958;SDS011;47917;48.784;14.980;2022-07-06T00:30:38;5.65;;;3.75;;
61958;SDS011;47917;48.784;14.980;2022-07-06T00:33:03;5.35;;;4.30;;
61958;SDS011;47917;48.784;14.980;2022-07-06T00:35:29;6.63;;;5.32;;
61958;SDS011;47917;48.784;14.980;2022-07-06T00:37:54;6.55;;;4.10;;
61958;SDS011;47917;48.784;14.980;2022-07-06T00:40:19;4.75;;;3.95;;
61958;SDS011;47917;48.784;14.980;2022-07-06T00:42:46;4.40;;;3.50;;
61958;SDS011;47917;48.784;14.980;2022-07-06T00:45:12;4.10;;;3.58;;
61958;SDS011;47917;48.784;14.980;2022-07-06T00:47:37;5.10;;;3.53;;
61958;SDS011;47917;48.784;14.980;2022-07-06T00:50:04;4.22;;;3.13;;
61958;SDS011;47917;48.784;14.980;2022-07-06T00:55:13;4.47;;;3.17;;
61958;SDS011;47917;48.784;14.980;2022-07-06T00:57:39;3.90;;;3.50;;
61958;SDS011;47917;48.784;14.980;2022-07-06T01:00:05;7.90;;;3.95;;
61958;SDS011;47917;48.784;14.980;2022-07-06T01:02:31;4.97;;;4.00;;
61958;SDS011;47917;48.784;14.980;2022-07-06T01:04:56;6.30;;;4.38;;
61958;SDS011;47917;48.784;14.980;2022-07-06T01:07:22;7.78;;;4.88;;
61958;SDS011;47917;48.784;14.980;2022-07-06T01:09:47;4.53;;;3.20;;
61958;SDS011;47917;48.784;14.980;2022-07-06T01:12:12;5.80;;;4.55;;
61958;SDS011;47917;48.784;14.980;2022-07-06T01:14:38;8.43;;;4.88;;
61958;SDS011;47917;48.784;14.980;2022-07-06T01:17:03;6.93;;;5.95;;
61958;SDS011;47917;48.784;14.980;2022-07-06T01:19:28;11.98;;;5.85;;
61958;SDS011;47917;48.784;14.980;2022-07-06T01:21:54;8.55;;;5.03;;
61958;SDS011;47917;48.784;14.980;2022-07-06T01:24:19;4.13;;;3.63;;
61958;SDS011;47917;48.784;14.980;2022-07-06T01:26:44;6.32;;;4.05;;
61958;SDS011;47917;48.784;14.980;2022-07-06T01:29:09;3.95;;;3.17;;
61958;SDS011;47917;48.784;14.980;2022-07-06T01:31:35;10.85;;;4.28;;
61958;SDS011;47917;48.784;14.980;2022-07-06T01:34:00;5.53;;;3.55;;
61958;SDS011;47917;48.784;14.980;2022-07-06T01:36:26;3.70;;;3.03;;
61958;SDS011;47917;48.784;14.980;2022-07-06T01:41:17;8.32;;;3.30;;
61958;SDS011;47917;48.784;14.980;2022-07-06T01:43:43;6.80;;;3.30;;
61958;SDS011;47917;48.784;14.980;2022-07-06T01:46:08;5.32;;;3.28;;
61958;SDS011;47917;48.784;14.980;2022-07-06T01:48:33;3.95;;;3.40;;
61958;SDS011;47917;48.784;14.980;2022-07-06T01:50:59;4.47;;;3.30;;
61958;SDS011;47917;48.784;14.980;2022-07-06T01:53:24;3.33;;;3.03;;
61958;SDS011;47917;48.784;14.980;2022-07-06T01:55:49;4.50;;;3.22;;
61958;SDS011;47917;48.784;14.980;2022-07-06T01:58:14;5.05;;;3.40;;
61958;SDS011;47917;48.784;14.980;2022-07-06T02:00:40;6.97;;;3.38;;
61958;SDS011;47917;48.784;14.980;2022-07-06T02:03:05;3.60;;;3.10;;
61958;SDS011;47917;48.784;14.980;2022-07-06T02:05:30;5.35;;;3.03;;
61958;SDS011;47917;48.784;14.980;2022-07-06T02:07:56;3.53;;;3.17;;
61958;SDS011;47917;48.784;14.980;2022-07-06T02:10:21;3.22;;;2.92;;
61958;SDS011;47917;48.784;14.980;2022-07-06T02:12:46;6.65;;;3.20;;
61958;SDS011;47917;48.784;14.980;2022-07-06T02:15:12;8.80;;;3.30;;
61958;SDS011;47917;48.784;14.980;2022-07-06T02:17:37;3.47;;;3.00;;
61958;SDS011;47917;48.784;14.980;2022-07-06T02:20:03;3.40;;;2.85;;
61958;SDS011;47917;48.784;14.980;2022-07-06T02:22:29;3.83;;;3.20;;
61958;SDS011;47917;48.784;14.980;2022-07-06T02:24:54;4.20;;;3.63;;
61958;SDS011;47917;48.784;14.980;2022-07-06T02:27:19;3.85;;;3.25;;
61958;SDS011;47917;48.784;14.980;2022-07-06T02:29:45;3.60;;;2.78;;
61958;SDS011;47917;48.784;14.980;2022-07-06T02:32:10;3.28;;;2.92;;
61958;SDS011;47917;48.784;14.980;2022-07-06T02:34:35;3.33;;;2.85;;
61958;SDS011;47917;48.784;14.980;2022-07-06T02:37:00;6.47;;;2.90;;
61958;SDS011;47917;48.784;14.980;2022-07-06T02:39:26;7.78;;;3.00;;
61958;SDS011;47917;48.784;14.980;2022-07-06T02:41:51;5.75;;;2.90;;
61958;SDS011;47917;48.784;14.980;2022-07-06T02:44:16;3.50;;;3.10;;
61958;SDS011;47917;48.784;14.980;2022-07-06T02:46:42;3.55;;;3.00;;
61958;SDS011;47917;48.784;14.980;2022-07-06T02:49:07;3.70;;;3.10;;
61958;SDS011;47917;48.784;14.980;2022-07-06T02:51:32;4.40;;;3.70;;
61958;SDS011;47917;48.784;14.980;2022-07-06T02:53:57;3.70;;;3.10;;
61958;SDS011;47917;48.784;14.980;2022-07-06T02:56:23;4.20;;;3.20;;
61958;SDS011;47917;48.784;14.980;2022-07-06T02:58:48;5.20;;;3.80;;
61958;SDS011;47917;48.784;14.980;2022-07-06T03:01:13;4.72;;;3.63;;
61958;SDS011;47917;48.784;14.980;2022-07-06T03:03:39;4.35;;;3.63;;
61958;SDS011;47917;48.784;14.980;2022-07-06T03:06:04;6.90;;;3.53;;
61958;SDS011;47917;48.784;14.980;2022-07-06T03:08:29;5.13;;;3.60;;
61958;SDS011;47917;48.784;14.980;2022-07-06T03:10:55;3.50;;;2.92;;
61958;SDS011;47917;48.784;14.980;2022-07-06T03:13:23;4.22;;;2.85;;
61958;SDS011;47917;48.784;14.980;2022-07-06T03:15:48;5.22;;;3.42;;
61958;SDS011;47917;48.784;14.980;2022-07-06T03:18:14;4.47;;;3.30;;
61958;SDS011;47917;48.784;14.980;2022-07-06T03:20:39;4.55;;;3.63;;
61958;SDS011;47917;48.784;14.980;2022-07-06T03:23:04;4.57;;;3.35;;
61958;SDS011;47917;48.784;14.980;2022-07-06T03:25:30;4.13;;;3.05;;
61958;SDS011;47917;48.784;14.980;2022-07-06T03:27:55;3.38;;;2.80;;
61958;SDS011;47917;48.784;14.980;2022-07-06T03:30:20;4.32;;;3.15;;
61958;SDS011;47917;48.784;14.980;2022-07-06T03:32:45;3.28;;;2.63;;
61958;SDS011;47917;48.784;14.980;2022-07-06T03:35:11;4.07;;;2.83;;
61958;SDS011;47917;48.784;14.980;2022-07-06T03:37:36;5.15;;;2.97;;
61958;SDS011;47917;48.784;14.980;2022-07-06T03:40:01;3.58;;;2.97;;
61958;SDS011;47917;48.784;14.980;2022-07-06T03:42:26;4.25;;;3.13;;
61958;SDS011;47917;48.784;14.980;2022-07-06T03:44:52;5.90;;;3.67;;
61958;SDS011;47917;48.784;14.980;2022-07-06T03:47:17;3.90;;;3.47;;
61958;SDS011;47917;48.784;14.980;2022-07-06T03:49:42;6.80;;;3.42;;
61958;SDS011;47917;48.784;14.980;2022-07-06T03:52:08;9.95;;;8.98;;
61958;SDS011;47917;48.784;14.980;2022-07-06T03:54:33;7.60;;;6.63;;
61958;SDS011;47917;48.784;14.980;2022-07-06T03:56:59;4.82;;;4.38;;
61958;SDS011;47917;48.784;14.980;2022-07-06T03:59:24;5.85;;;4.90;;
61958;SDS011;47917;48.784;14.980;2022-07-06T04:01:49;5.60;;;5.00;;
61958;SDS011;47917;48.784;14.980;2022-07-06T04:04:15;4.53;;;3.92;;
61958;SDS011;47917;48.784;14.980;2022-07-06T04:06:40;4.82;;;3.65;;
61958;SDS011;47917;48.784;14.980;2022-07-06T04:09:05;5.38;;;4.22;;
61958;SDS011;47917;48.784;14.980;2022-07-06T04:11:31;5.43;;;4.38;;
61958;SDS011;47917;48.784;14.980;2022-07-06T04:13:56;3.28;;;2.97;;
61958;SDS011;47917;48.784;14.980;2022-07-06T04:16:21;6.03;;;3.80;;
61958;SDS011;47917;48.784;14.980;2022-07-06T04:18:46;4.53;;;3.60;;
61958;SDS011;47917;48.784;14.980;2022-07-06T04:21:12;4.25;;;3.42;;
61958;SDS011;47917;48.784;14.980;2022-07-06T04:23:37;8.77;;;4.22;;
61958;SDS011;47917;48.784;14.980;2022-07-06T04:26:02;6.90;;;4.93;;
61958;SDS011;47917;48.784;14.980;2022-07-06T04:28:34;6.20;;;4.40;;
61958;SDS011;47917;48.784;14.980;2022-07-06T04:30:59;5.43;;;4.40;;
61958;SDS011;47917;48.784;14.980;2022-07-06T04:33:25;7.78;;;6.97;;
61958;SDS011;47917;48.784;14.980;2022-07-06T04:35:50;13.25;;;7.80;;
61958;SDS011;47917;48.784;14.980;2022-07-06T04:38:16;5.57;;;4.85;;
61958;SDS011;47917;48.784;14.980;2022-07-06T04:40:41;9.25;;;8.25;;
61958;SDS011;47917;48.784;14.980;2022-07-06T04:43:06;8.18;;;7.38;;
61958;SDS011;47917;48.784;14.980;2022-07-06T04:45:32;7.97;;;6.75;;
61958;SDS011;47917;48.784;14.980;2022-07-06T04:47:57;9.93;;;8.05;;
61958;SDS011;47917;48.784;14.980;2022-07-06T04:50:22;7.00;;;6.28;;
61958;SDS011;47917;48.784;14.980;2022-07-06T04:52:48;9.93;;;5.85;;
61958;SDS011;47917;48.784;14.980;2022-07-06T04:55:13;6.93;;;5.75;;
61958;SDS011;47917;48.784;14.980;2022-07-06T04:57:39;8.55;;;6.75;;
61958;SDS011;47917;48.784;14.980;2022-07-06T05:00:05;7.90;;;7.13;;
61958;SDS011;47917;48.784;14.980;2022-07-06T05:02:30;9.73;;;8.73;;
61958;SDS011;47917;48.784;14.980;2022-07-06T05:04:56;9.00;;;7.07;;
61958;SDS011;47917;48.784;14.980;2022-07-06T05:07:21;9.10;;;8.13;;
61958;SDS011;47917;48.784;14.980;2022-07-06T05:09:47;7.05;;;6.35;;
61958;SDS011;47917;48.784;14.980;2022-07-06T05:12:12;7.18;;;6.47;;
61958;SDS011;47917;48.784;14.980;2022-07-06T05:14:37;7.30;;;6.13;;
61958;SDS011;47917;48.784;14.980;2022-07-06T05:17:03;8.73;;;6.35;;
61958;SDS011;47917;48.784;14.980;2022-07-06T05:19:28;13.30;;;6.55;;
61958;SDS011;47917;48.784;14.980;2022-07-06T05:21:53;5.55;;;4.95;;
61958;SDS011;47917;48.784;14.980;2022-07-06T05:24:19;7.65;;;4.50;;
61958;SDS011;47917;48.784;14.980;2022-07-06T05:26:44;4.47;;;3.97;;
61958;SDS011;47917;48.784;14.980;2022-07-06T05:29:09;4.85;;;3.47;;
61958;SDS011;47917;48.784;14.980;2022-07-06T05:31:35;9.38;;;4.25;;
61958;SDS011;47917;48.784;14.980;2022-07-06T05:34:00;6.22;;;3.92;;
61958;SDS011;47917;48.784;14.980;2022-07-06T05:36:26;5.35;;;4.25;;
61958;SDS011;47917;48.784;14.980;2022-07-06T05:38:51;4.75;;;3.67;;
61958;SDS011;47917;48.784;14.980;2022-07-06T05:41:17;4.75;;;4.25;;
61958;SDS011;47917;48.784;14.980;2022-07-06T05:43:42;5.47;;;4.20;;
61958;SDS011;47917;48.784;14.980;2022-07-06T05:46:07;5.18;;;4.38;;
61958;SDS011;47917;48.784;14.980;2022-07-06T05:48:33;4.82;;;3.97;;
61958;SDS011;47917;48.784;14.980;2022-07-06T05:51:17;4.35;;;3.50;;
61958;SDS011;47917;48.784;14.980;2022-07-06T05:53:42;6.25;;;3.78;;
61958;SDS011;47917;48.784;14.980;2022-07-06T05:56:07;3.10;;;2.80;;
61958;SDS011;47917;48.784;14.980;2022-07-06T05:58:33;4.35;;;3.00;;
61958;SDS011;47917;48.784;14.980;2022-07-06T06:00:58;3.53;;;3.20;;
61958;SDS011;47917;48.784;14.980;2022-07-06T06:03:23;3.25;;;2.53;;
61958;SDS011;47917;48.784;14.980;2022-07-06T06:05:49;2.83;;;2.35;;
61958;SDS011;47917;48.784;14.980;2022-07-06T06:08:14;3.10;;;2.40;;
61958;SDS011;47917;48.784;14.980;2022-07-06T06:10:40;5.97;;;2.70;;
61958;SDS011;47917;48.784;14.980;2022-07-06T06:13:05;5.07;;;2.83;;
61958;SDS011;47917;48.784;14.980;2022-07-06T06:15:30;5.25;;;2.63;;
61958;SDS011;47917;48.784;14.980;2022-07-06T06:17:56;5.13;;;2.75;;
61958;SDS011;47917;48.784;14.980;2022-07-06T06:20:24;4.25;;;2.50;;
61958;SDS011;47917;48.784;14.980;2022-07-06T06:25:15;5.78;;;3.08;;
61958;SDS011;47917;48.784;14.980;2022-07-06T06:27:41;5.00;;;3.00;;
61958;SDS011;47917;48.784;14.980;2022-07-06T06:30:07;4.10;;;3.20;;
61958;SDS011;47917;48.784;14.980;2022-07-06T06:32:35;6.05;;;5.15;;
61958;SDS011;47917;48.784;14.980;2022-07-06T06:35:04;5.38;;;3.80;;
61958;SDS011;47917;48.784;14.980;2022-07-06T06:37:33;7.38;;;4.80;;
61958;SDS011;47917;48.784;14.980;2022-07-06T06:39:59;5.28;;;4.63;;
61958;SDS011;47917;48.784;14.980;2022-07-06T06:42:24;6.75;;;4.63;;
61958;SDS011;47917;48.784;14.980;2022-07-06T06:44:50;7.15;;;5.15;;
61958;SDS011;47917;48.784;14.980;2022-07-06T06:47:15;6.10;;;4.95;;
61958;SDS011;47917;48.784;14.980;2022-07-06T06:49:44;6.13;;;5.53;;
61958;SDS011;47917;48.784;14.980;2022-07-06T06:52:10;7.40;;;6.10;;
61958;SDS011;47917;48.784;14.980;2022-07-06T06:54:36;4.13;;;3.70;;
61958;SDS011;47917;48.784;14.980;2022-07-06T06:57:04;4.22;;;3.35;;
61958;SDS011;47917;48.784;14.980;2022-07-06T06:59:32;5.18;;;4.25;;
61958;SDS011;47917;48.784;14.980;2022-07-06T07:02:00;5.38;;;4.88;;
61958;SDS011;47917;48.784;14.980;2022-07-06T07:04:28;4.50;;;3.90;;
61958;SDS011;47917;48.784;14.980;2022-07-06T07:06:56;9.45;;;4.30;;
61958;SDS011;47917;48.784;14.980;2022-07-06T07:09:21;5.47;;;4.60;;
61958;SDS011;47917;48.784;14.980;2022-07-06T07:11:47;9.93;;;4.05;;
61958;SDS011;47917;48.784;14.980;2022-07-06T07:14:12;4.15;;;3.55;;
61958;SDS011;47917;48.784;14.980;2022-07-06T07:16:37;5.63;;;3.78;;
61958;SDS011;47917;48.784;14.980;2022-07-06T07:19:03;7.20;;;4.30;;
61958;SDS011;47917;48.784;14.980;2022-07-06T07:21:30;3.45;;;2.97;;
61958;SDS011;47917;48.784;14.980;2022-07-06T07:23:56;8.25;;;3.45;;
61958;SDS011;47917;48.784;14.980;2022-07-06T07:26:21;3.22;;;2.67;;
61958;SDS011;47917;48.784;14.980;2022-07-06T07:28:49;2.97;;;2.63;;
61958;SDS011;47917;48.784;14.980;2022-07-06T07:31:18;4.95;;;2.88;;
61958;SDS011;47917;48.784;14.980;2022-07-06T07:33:46;2.65;;;2.38;;
61958;SDS011;47917;48.784;14.980;2022-07-06T07:36:14;6.22;;;4.45;;
61958;SDS011;47917;48.784;14.980;2022-07-06T07:38:39;3.83;;;3.42;;
61958;SDS011;47917;48.784;14.980;2022-07-06T07:41:05;5.40;;;3.67;;
61958;SDS011;47917;48.784;14.980;2022-07-06T07:43:31;12.25;;;5.13;;
61958;SDS011;47917;48.784;14.980;2022-07-06T07:45:59;5.32;;;4.18;;
61958;SDS011;47917;48.784;14.980;2022-07-06T07:48:25;5.70;;;4.18;;
61958;SDS011;47917;48.784;14.980;2022-07-06T07:50:50;6.07;;;4.13;;
61958;SDS011;47917;48.784;14.980;2022-07-06T07:53:18;4.57;;;3.75;;
61958;SDS011;47917;48.784;14.980;2022-07-06T07:55:43;5.72;;;3.65;;
61958;SDS011;47917;48.784;14.980;2022-07-06T07:58:12;5.78;;;3.70;;
61958;SDS011;47917;48.784;14.980;2022-07-06T08:00:46;4.25;;;3.47;;
61958;SDS011;47917;48.784;14.980;2022-07-06T08:03:30;7.30;;;4.63;;
61958;SDS011;47917;48.784;14.980;2022-07-06T08:05:56;4.53;;;3.80;;
61958;SDS011;47917;48.784;14.980;2022-07-06T08:08:23;9.65;;;4.00;;
61958;SDS011;47917;48.784;14.980;2022-07-06T08:10:54;11.40;;;3.42;;
61958;SDS011;47917;48.784;14.980;2022-07-06T08:13:22;3.40;;;2.78;;
61958;SDS011;47917;48.784;14.980;2022-07-06T08:15:50;4.40;;;3.22;;
61958;SDS011;47917;48.784;14.980;2022-07-06T08:18:16;3.92;;;2.63;;
61958;SDS011;47917;48.784;14.980;2022-07-06T08:20:41;4.13;;;2.85;;
61958;SDS011;47917;48.784;14.980;2022-07-06T08:23:07;2.70;;;2.22;;
61958;SDS011;47917;48.784;14.980;2022-07-06T08:25:32;3.28;;;2.50;;
61958;SDS011;47917;48.784;14.980;2022-07-06T08:27:57;5.43;;;2.75;;
61958;SDS011;47917;48.784;14.980;2022-07-06T08:30:23;11.35;;;3.35;;
61958;SDS011;47917;48.784;14.980;2022-07-06T08:32:50;4.75;;;3.40;;
61958;SDS011;47917;48.784;14.980;2022-07-06T08:37:45;6.15;;;2.50;;
61958;SDS011;47917;48.784;14.980;2022-07-06T08:40:10;4.53;;;3.03;;
61958;SDS011;47917;48.784;14.980;2022-07-06T08:42:36;2.97;;;2.42;;
61958;SDS011;47917;48.784;14.980;2022-07-06T08:45:05;4.25;;;2.95;;
61958;SDS011;47917;48.784;14.980;2022-07-06T08:47:31;3.63;;;2.38;;
61958;SDS011;47917;48.784;14.980;2022-07-06T08:49:59;5.15;;;3.03;;
61958;SDS011;47917;48.784;14.980;2022-07-06T08:52:26;5.65;;;3.03;;
61958;SDS011;47917;48.784;14.980;2022-07-06T08:54:52;4.68;;;2.85;;
61958;SDS011;47917;48.784;14.980;2022-07-06T08:57:18;5.15;;;3.20;;
61958;SDS011;47917;48.784;14.980;2022-07-06T08:59:44;5.85;;;3.00;;
61958;SDS011;47917;48.784;14.980;2022-07-06T09:02:10;3.55;;;2.67;;
61958;SDS011;47917;48.784;14.980;2022-07-06T09:04:36;5.70;;;2.85;;
61958;SDS011;47917;48.784;14.980;2022-07-06T09:07:02;4.20;;;2.80;;
61958;SDS011;47917;48.784;14.980;2022-07-06T09:09:33;5.30;;;2.80;;
61958;SDS011;47917;48.784;14.980;2022-07-06T09:12:01;5.13;;;2.97;;
61958;SDS011;47917;48.784;14.980;2022-07-06T09:14:27;4.68;;;3.45;;
61958;SDS011;47917;48.784;14.980;2022-07-06T09:17:04;9.50;;;4.15;;
61958;SDS011;47917;48.784;14.980;2022-07-06T09:19:33;4.55;;;2.70;;
61958;SDS011;47917;48.784;14.980;2022-07-06T09:21:59;4.50;;;2.97;;
61958;SDS011;47917;48.784;14.980;2022-07-06T09:24:24;3.38;;;2.70;;
61958;SDS011;47917;48.784;14.980;2022-07-06T09:26:53;3.80;;;3.23;;
61958;SDS011;47917;48.784;14.980;2022-07-06T09:29:24;4.18;;;2.90;;
61958;SDS011;47917;48.784;14.980;2022-07-06T09:31:56;5.25;;;3.15;;
61958;SDS011;47917;48.784;14.980;2022-07-06T09:34:43;5.00;;;3.00;;
61958;SDS011;47917;48.784;14.980;2022-07-06T09:37:09;5.95;;;2.85;;
61958;SDS011;47917;48.784;14.980;2022-07-06T09:39:34;7.13;;;3.72;;
61958;SDS011;47917;48.784;14.980;2022-07-06T09:42:00;6.50;;;3.55;;
61958;SDS011;47917;48.784;14.980;2022-07-06T09:44:26;5.57;;;3.10;;
61958;SDS011;47917;48.784;14.980;2022-07-06T09:46:53;2.80;;;2.50;;
61958;SDS011;47917;48.784;14.980;2022-07-06T09:49:20;5.13;;;3.70;;
61958;SDS011;47917;48.784;14.980;2022-07-06T09:51:47;2.78;;;2.42;;
61958;SDS011;47917;48.784;14.980;2022-07-06T09:54:12;4.35;;;3.10;;
61958;SDS011;47917;48.784;14.980;2022-07-06T09:56:43;9.65;;;3.78;;
61958;SDS011;47917;48.784;14.980;2022-07-06T09:59:10;6.50;;;2.92;;
61958;SDS011;47917;48.784;14.980;2022-07-06T10:01:36;5.57;;;3.08;;
61958;SDS011;47917;48.784;14.980;2022-07-06T10:04:01;5.28;;;2.90;;
61958;SDS011;47917;48.784;14.980;2022-07-06T10:06:27;7.00;;;3.10;;
61958;SDS011;47917;48.784;14.980;2022-07-06T10:08:55;6.22;;;2.70;;
61958;SDS011;47917;48.784;14.980;2022-07-06T10:11:22;5.50;;;2.78;;
61958;SDS011;47917;48.784;14.980;2022-07-06T10:13:49;4.80;;;3.17;;
61958;SDS011;47917;48.784;14.980;2022-07-06T10:16:15;6.97;;;4.05;;
61958;SDS011;47917;48.784;14.980;2022-07-06T10:18:40;4.28;;;3.05;;
61958;SDS011;47917;48.784;14.980;2022-07-06T10:21:10;5.55;;;3.25;;
61958;SDS011;47917;48.784;14.980;2022-07-06T10:23:35;16.45;;;7.90;;
61958;SDS011;47917;48.784;14.980;2022-07-06T10:26:01;5.03;;;3.05;;
61958;SDS011;47917;48.784;14.980;2022-07-06T10:28:27;4.05;;;2.83;;
61958;SDS011;47917;48.784;14.980;2022-07-06T10:30:55;3.83;;;2.53;;
61958;SDS011;47917;48.784;14.980;2022-07-06T10:33:21;4.25;;;2.33;;
61958;SDS011;47917;48.784;14.980;2022-07-06T10:35:47;6.05;;;2.50;;
61958;SDS011;47917;48.784;14.980;2022-07-06T10:38:15;4.25;;;2.60;;
61958;SDS011;47917;48.784;14.980;2022-07-06T10:40:44;3.25;;;2.10;;
61958;SDS011;47917;48.784;14.980;2022-07-06T10:43:44;3.38;;;2.65;;
61958;SDS011;47917;48.784;14.980;2022-07-06T10:46:22;7.72;;;2.60;;
61958;SDS011;47917;48.784;14.980;2022-07-06T10:48:48;2.20;;;1.98;;
61958;SDS011;47917;48.784;14.980;2022-07-06T10:51:27;2.47;;;2.13;;
61958;SDS011;47917;48.784;14.980;2022-07-06T10:54:06;2.72;;;2.03;;
61958;SDS011;47917;48.784;14.980;2022-07-06T10:56:40;2.47;;;2.28;;
61958;SDS011;47917;48.784;14.980;2022-07-06T10:59:14;2.47;;;2.15;;
61958;SDS011;47917;48.784;14.980;2022-07-06T11:01:39;3.50;;;2.30;;
61958;SDS011;47917;48.784;14.980;2022-07-06T11:04:07;2.90;;;2.20;;
61958;SDS011;47917;48.784;14.980;2022-07-06T11:06:34;4.35;;;2.20;;
61958;SDS011;47917;48.784;14.980;2022-07-06T11:09:05;3.83;;;2.50;;
61958;SDS011;47917;48.784;14.980;2022-07-06T11:16:38;4.30;;;2.00;;
61958;SDS011;47917;48.784;14.980;2022-07-06T11:19:10;4.35;;;2.55;;
61958;SDS011;47917;48.784;14.980;2022-07-06T11:24:14;3.92;;;2.17;;
61958;SDS011;47917;48.784;14.980;2022-07-06T11:26:43;3.80;;;2.38;;
61958;SDS011;47917;48.784;14.980;2022-07-06T11:29:12;2.50;;;2.17;;
61958;SDS011;47917;48.784;14.980;2022-07-06T11:31:49;3.75;;;2.33;;
61958;SDS011;47917;48.784;14.980;2022-07-06T11:34:21;2.95;;;2.20;;
61958;SDS011;47917;48.784;14.980;2022-07-06T11:36:47;2.78;;;2.10;;
61958;SDS011;47917;48.784;14.980;2022-07-06T11:39:13;2.47;;;2.20;;
61958;SDS011;47917;48.784;14.980;2022-07-06T11:41:38;2.38;;;2.03;;
61958;SDS011;47917;48.784;14.980;2022-07-06T11:44:10;2.33;;;2.10;;
61958;SDS011;47917;48.784;14.980;2022-07-06T11:46:38;3.03;;;2.15;;
61958;SDS011;47917;48.784;14.980;2022-07-06T11:49:04;3.63;;;2.28;;
61958;SDS011;47917;48.784;14.980;2022-07-06T11:51:30;4.78;;;2.40;;
61958;SDS011;47917;48.784;14.980;2022-07-06T11:54:00;2.67;;;2.10;;
61958;SDS011;47917;48.784;14.980;2022-07-06T11:56:27;1.88;;;1.75;;
61958;SDS011;47917;48.784;14.980;2022-07-06T11:58:53;1.67;;;1.58;;
61958;SDS011;47917;48.784;14.980;2022-07-06T12:01:19;2.53;;;2.10;;
61958;SDS011;47917;48.784;14.980;2022-07-06T12:03:44;2.58;;;1.80;;
61958;SDS011;47917;48.784;14.980;2022-07-06T12:06:15;2.55;;;2.20;;
61958;SDS011;47917;48.784;14.980;2022-07-06T12:08:41;2.25;;;1.77;;
61958;SDS011;47917;48.784;14.980;2022-07-06T12:11:06;1.77;;;1.67;;
61958;SDS011;47917;48.784;14.980;2022-07-06T12:13:35;2.10;;;1.90;;
61958;SDS011;47917;48.784;14.980;2022-07-06T12:16:11;10.95;;;2.60;;
61958;SDS011;47917;48.784;14.980;2022-07-06T12:18:38;3.15;;;2.40;;
61958;SDS011;47917;48.784;14.980;2022-07-06T12:21:04;3.30;;;2.50;;
61958;SDS011;47917;48.784;14.980;2022-07-06T12:23:38;3.30;;;2.53;;
61958;SDS011;47917;48.784;14.980;2022-07-06T12:26:03;4.60;;;3.00;;
61958;SDS011;47917;48.784;14.980;2022-07-06T12:28:39;3.17;;;2.53;;
61958;SDS011;47917;48.784;14.980;2022-07-06T12:31:05;2.85;;;2.35;;
61958;SDS011;47917;48.784;14.980;2022-07-06T12:33:31;6.18;;;2.70;;
61958;SDS011;47917;48.784;14.980;2022-07-06T12:35:56;5.97;;;3.17;;
61958;SDS011;47917;48.784;14.980;2022-07-06T12:38:25;3.72;;;2.53;;
61958;SDS011;47917;48.784;14.980;2022-07-06T12:40:50;2.80;;;2.40;;
61958;SDS011;47917;48.784;14.980;2022-07-06T12:43:39;4.57;;;2.78;;
61958;SDS011;47917;48.784;14.980;2022-07-06T12:48:52;2.97;;;2.22;;
61958;SDS011;47917;48.784;14.980;2022-07-06T12:51:18;3.78;;;2.60;;
61958;SDS011;47917;48.784;14.980;2022-07-06T12:53:44;6.32;;;2.55;;
61958;SDS011;47917;48.784;14.980;2022-07-06T12:56:12;4.35;;;2.83;;
61958;SDS011;47917;48.784;14.980;2022-07-06T12:58:54;9.82;;;2.60;;
61958;SDS011;47917;48.784;14.980;2022-07-06T13:01:22;3.38;;;1.92;;
61958;SDS011;47917;48.784;14.980;2022-07-06T13:03:55;4.93;;;2.22;;
61958;SDS011;47917;48.784;14.980;2022-07-06T13:06:36;2.47;;;2.00;;
61958;SDS011;47917;48.784;14.980;2022-07-06T13:09:10;2.90;;;2.10;;
61958;SDS011;47917;48.784;14.980;2022-07-06T13:11:38;4.82;;;2.30;;
61958;SDS011;47917;48.784;14.980;2022-07-06T13:14:05;3.40;;;2.22;;
61958;SDS011;47917;48.784;14.980;2022-07-06T13:16:31;2.75;;;2.10;;
61958;SDS011;47917;48.784;14.980;2022-07-06T13:19:07;3.42;;;2.55;;
61958;SDS011;47917;48.784;14.980;2022-07-06T13:21:37;3.55;;;2.30;;
61958;SDS011;47917;48.784;14.980;2022-07-06T13:24:06;3.03;;;2.05;;
61958;SDS011;47917;48.784;14.980;2022-07-06T13:26:32;2.33;;;2.00;;
61958;SDS011;47917;48.784;14.980;2022-07-06T13:29:02;2.30;;;1.90;;
61958;SDS011;47917;48.784;14.980;2022-07-06T13:31:28;3.03;;;1.95;;
61958;SDS011;47917;48.784;14.980;2022-07-06T13:33:54;3.38;;;1.75;;
61958;SDS011;47917;48.784;14.980;2022-07-06T13:36:19;1.92;;;1.73;;
61958;SDS011;47917;48.784;14.980;2022-07-06T13:38:45;2.95;;;2.17;;
61958;SDS011;47917;48.784;14.980;2022-07-06T13:41:10;3.03;;;2.03;;
61958;SDS011;47917;48.784;14.980;2022-07-06T13:43:36;2.15;;;1.90;;
61958;SDS011;47917;48.784;14.980;2022-07-06T13:46:03;4.95;;;2.10;;
61958;SDS011;47917;48.784;14.980;2022-07-06T13:48:32;2.67;;;1.80;;
61958;SDS011;47917;48.784;14.980;2022-07-06T13:50:58;4.68;;;2.10;;
61958;SDS011;47917;48.784;14.980;2022-07-06T13:53:24;2.35;;;2.08;;
61958;SDS011;47917;48.784;14.980;2022-07-06T13:55:49;3.63;;;2.30;;
61958;SDS011;47917;48.784;14.980;2022-07-06T13:58:15;2.63;;;1.83;;
61958;SDS011;47917;48.784;14.980;2022-07-06T14:00:40;2.90;;;2.10;;
61958;SDS011;47917;48.784;14.980;2022-07-06T14:03:06;3.10;;;1.88;;
61958;SDS011;47917;48.784;14.980;2022-07-06T14:05:34;2.13;;;1.90;;
61958;SDS011;47917;48.784;14.980;2022-07-06T14:07:59;3.05;;;2.00;;
61958;SDS011;47917;48.784;14.980;2022-07-06T14:10:25;2.97;;;2.05;;
61958;SDS011;47917;48.784;14.980;2022-07-06T14:12:53;2.67;;;2.20;;
61958;SDS011;47917;48.784;14.980;2022-07-06T14:15:19;5.57;;;2.30;;
61958;SDS011;47917;48.784;14.980;2022-07-06T14:17:44;2.45;;;2.15;;
61958;SDS011;47917;48.784;14.980;2022-07-06T14:20:10;2.25;;;2.05;;
61958;SDS011;47917;48.784;14.980;2022-07-06T14:22:36;4.55;;;2.20;;
61958;SDS011;47917;48.784;14.980;2022-07-06T14:25:01;3.05;;;2.15;;
61958;SDS011;47917;48.784;14.980;2022-07-06T14:27:27;2.55;;;1.80;;
61958;SDS011;47917;48.784;14.980;2022-07-06T14:29:52;4.68;;;2.15;;
61958;SDS011;47917;48.784;14.980;2022-07-06T14:32:24;3.08;;;2.15;;
61958;SDS011;47917;48.784;14.980;2022-07-06T14:34:49;4.57;;;2.60;;
61958;SDS011;47917;48.784;14.980;2022-07-06T14:37:15;3.75;;;2.30;;
61958;SDS011;47917;48.784;14.980;2022-07-06T14:39:41;4.18;;;2.60;;
61958;SDS011;47917;48.784;14.980;2022-07-06T14:42:06;4.18;;;2.35;;
61958;SDS011;47917;48.784;14.980;2022-07-06T14:44:32;3.03;;;2.30;;
61958;SDS011;47917;48.784;14.980;2022-07-06T14:46:57;5.43;;;2.63;;
61958;SDS011;47917;48.784;14.980;2022-07-06T14:49:22;5.40;;;2.80;;
61958;SDS011;47917;48.784;14.980;2022-07-06T14:51:48;2.67;;;2.30;;